createdAt,value
2017-08-25T00:00:30.975Z,27.30
2017-08-25T00:02:58.456Z,28.70
2017-08-25T00:05:25.990Z,27.23
2017-08-25T00:07:53.506Z,26.17
2017-08-25T00:10:21.063Z,29.40
2017-08-25T00:12:48.535Z,25.93
2017-08-25T00:15:16.011Z,31.10
2017-08-25T00:17:43.535Z,26.00
2017-08-25T00:20:11.019Z,29.77
2017-08-25T00:22:38.546Z,30.03
2017-08-25T00:25:06.099Z,31.27
2017-08-25T00:27:33.587Z,27.07
2017-08-25T00:30:01.063Z,24.20
2017-08-25T00:32:28.573Z,30.40
2017-08-25T00:34:56.150Z,24.93
2017-08-25T00:37:23.639Z,27.57
2017-08-25T00:39:51.115Z,22.00
2017-08-25T00:42:18.591Z,26.30
2017-08-25T00:44:46.064Z,26.73
2017-08-25T00:47:13.618Z,26.13
2017-08-25T00:49:41.095Z,26.70
2017-08-25T00:52:08.636Z,25.37
2017-08-25T00:54:36.199Z,24.87
2017-08-25T00:57:03.682Z,22.87
2017-08-25T00:59:31.164Z,23.90
2017-08-25T01:01:58.671Z,24.07
2017-08-25T01:04:26.227Z,27.23
2017-08-25T01:06:53.792Z,30.90
2017-08-25T01:09:21.270Z,21.70
2017-08-25T01:11:48.791Z,22.20
2017-08-25T01:14:16.281Z,26.57
2017-08-25T01:16:43.801Z,24.37
2017-08-25T01:19:11.357Z,25.70
2017-08-25T01:21:38.931Z,28.30
2017-08-25T01:24:06.484Z,22.90
2017-08-25T01:26:33.953Z,22.10
2017-08-25T01:29:01.489Z,24.37
2017-08-25T01:31:29.049Z,21.90
2017-08-25T01:33:56.623Z,23.70
2017-08-25T01:36:24.128Z,23.43
2017-08-25T01:38:51.669Z,21.07
2017-08-25T01:41:19.121Z,23.27
2017-08-25T01:43:46.645Z,21.23
2017-08-25T01:46:14.220Z,21.90
2017-08-25T01:48:41.715Z,24.07
2017-08-25T01:51:09.224Z,20.47
2017-08-25T01:53:36.680Z,22.13
2017-08-25T01:56:04.250Z,20.67
2017-08-25T01:58:31.727Z,22.80
2017-08-25T02:00:59.263Z,22.07
2017-08-25T02:03:26.741Z,21.13
2017-08-25T02:05:54.273Z,19.50
2017-08-25T02:08:21.837Z,22.20
2017-08-25T02:10:49.333Z,20.60
2017-08-25T02:13:16.852Z,22.90
2017-08-25T02:15:44.325Z,20.00
2017-08-25T02:18:11.791Z,24.80
2017-08-25T02:20:39.313Z,22.37
2017-08-25T02:23:06.869Z,18.83
2017-08-25T02:25:34.435Z,20.40
2017-08-25T02:28:01.902Z,19.43
2017-08-25T02:30:29.380Z,20.23
2017-08-25T02:32:56.850Z,21.23
2017-08-25T02:35:24.359Z,19.10
2017-08-25T02:37:51.935Z,21.60
2017-08-25T02:40:19.392Z,25.53
2017-08-25T02:42:46.974Z,22.20
2017-08-25T02:45:14.544Z,21.50
2017-08-25T02:47:42.060Z,21.40
2017-08-25T02:50:09.634Z,21.83
2017-08-25T02:52:37.177Z,22.33
2017-08-25T02:55:04.738Z,24.97
2017-08-25T02:57:32.287Z,19.60
2017-08-25T02:59:59.797Z,20.60
2017-08-25T03:02:27.309Z,21.60
2017-08-25T03:04:54.784Z,24.03
2017-08-25T03:07:22.365Z,21.40
2017-08-25T03:09:49.835Z,27.00
2017-08-25T03:12:17.307Z,23.13
2017-08-25T03:14:44.793Z,21.03
2017-08-25T03:17:12.274Z,25.03
2017-08-25T03:19:39.806Z,21.93
2017-08-25T03:22:07.287Z,20.20
2017-08-25T03:24:34.756Z,23.10
2017-08-25T03:27:02.234Z,19.30
2017-08-25T03:29:29.744Z,20.60
2017-08-25T03:31:57.299Z,27.60
2017-08-25T03:34:24.753Z,22.57
2017-08-25T03:36:52.271Z,18.53
2017-08-25T03:39:19.766Z,19.27
2017-08-25T03:41:47.242Z,23.63
2017-08-25T03:44:14.781Z,24.23
2017-08-25T03:46:42.263Z,21.50
2017-08-25T03:49:09.730Z,21.63
2017-08-25T03:51:37.249Z,24.80
2017-08-25T03:54:04.857Z,20.37
2017-08-25T03:56:32.825Z,22.83
2017-08-25T03:59:00.339Z,26.30
2017-08-25T04:01:27.812Z,23.47
2017-08-25T04:03:55.281Z,19.10
2017-08-25T04:06:22.766Z,22.33
2017-08-25T04:08:50.258Z,22.83
2017-08-25T04:11:17.831Z,19.00
2017-08-25T04:13:45.389Z,22.50
2017-08-25T04:16:12.943Z,20.23
2017-08-25T04:18:40.411Z,21.20
2017-08-25T04:21:07.885Z,22.70
2017-08-25T04:23:35.460Z,18.10
2017-08-25T04:26:02.921Z,23.90
2017-08-25T04:28:30.517Z,19.10
2017-08-25T04:30:57.977Z,25.53
2017-08-25T04:33:25.538Z,20.67
2017-08-25T04:35:53.094Z,19.53
2017-08-25T04:38:20.554Z,21.97
2017-08-25T04:40:48.037Z,21.07
2017-08-25T04:43:15.505Z,21.60
2017-08-25T04:45:42.982Z,23.57
2017-08-25T04:48:10.537Z,26.17
2017-08-25T04:50:38.036Z,25.93
2017-08-25T04:53:05.508Z,24.10
2017-08-25T04:55:33.068Z,26.53
2017-08-25T04:58:00.530Z,24.63
2017-08-25T05:00:28.030Z,23.90
2017-08-25T05:02:55.507Z,26.30
2017-08-25T05:05:22.994Z,24.27
2017-08-25T05:07:50.467Z,23.03
2017-08-25T05:10:17.947Z,30.83
2017-08-25T05:12:45.424Z,31.87
2017-08-25T05:15:12.964Z,34.70
2017-08-25T05:17:40.435Z,32.40
2017-08-25T05:20:07.935Z,33.70
2017-08-25T05:22:35.487Z,29.77
2017-08-25T05:25:02.967Z,30.50
2017-08-25T05:27:30.501Z,28.33
2017-08-25T05:29:57.977Z,33.77
2017-08-25T05:32:25.823Z,31.90
2017-08-25T05:34:53.307Z,34.83
2017-08-25T05:37:20.782Z,31.30
2017-08-25T05:39:49.109Z,27.57
2017-08-25T05:42:16.683Z,28.77
2017-08-25T05:44:44.167Z,30.07
2017-08-25T05:47:11.634Z,26.20
2017-08-25T05:49:39.111Z,22.67
2017-08-25T05:52:06.583Z,24.60
2017-08-25T05:54:34.045Z,23.77
2017-08-25T05:57:01.622Z,20.97
2017-08-25T05:59:29.168Z,22.10
2017-08-25T06:01:56.645Z,26.93
2017-08-25T06:04:24.132Z,22.27
2017-08-25T06:06:51.649Z,26.17
2017-08-25T06:09:19.106Z,22.30
2017-08-25T06:11:46.713Z,22.47
2017-08-25T06:14:14.221Z,24.33
2017-08-25T06:16:41.787Z,24.70
2017-08-25T06:19:09.344Z,18.40
2017-08-25T06:21:36.885Z,21.30
2017-08-25T06:24:04.466Z,21.17
2017-08-25T06:26:32.035Z,19.87
2017-08-25T06:28:59.576Z,23.87
2017-08-25T06:31:27.134Z,20.23
2017-08-25T06:33:54.798Z,24.70
2017-08-25T06:36:22.265Z,17.77
2017-08-25T06:38:49.815Z,17.53
2017-08-25T06:41:17.380Z,15.80
2017-08-25T06:43:44.942Z,16.40
2017-08-25T06:46:12.423Z,16.23
2017-08-25T06:48:39.967Z,17.30
2017-08-25T06:51:07.493Z,16.90
2017-08-25T06:53:35.054Z,17.90
2017-08-25T06:56:02.682Z,16.90
2017-08-25T06:58:30.168Z,13.37
2017-08-25T07:00:57.655Z,18.10
2017-08-25T07:03:25.135Z,18.07
2017-08-25T07:05:52.627Z,17.93
2017-08-25T07:08:20.105Z,15.00
2017-08-25T07:10:47.682Z,13.53
2017-08-25T07:13:15.155Z,13.30
2017-08-25T07:15:42.655Z,15.70
2017-08-25T07:18:10.147Z,21.23
2017-08-25T07:20:37.630Z,21.20
2017-08-25T07:23:05.102Z,13.87
2017-08-25T07:25:32.593Z,12.30
2017-08-25T07:28:00.069Z,10.20
2017-08-25T07:30:27.615Z,14.40
2017-08-25T07:32:55.145Z,16.00
2017-08-25T07:35:22.637Z,9.83
2017-08-25T07:37:50.119Z,11.23
2017-08-25T07:40:17.594Z,8.97
2017-08-25T07:42:45.082Z,12.17
2017-08-25T07:45:12.547Z,7.10
2017-08-25T07:47:40.009Z,8.77
2017-08-25T07:50:07.483Z,10.70
2017-08-25T07:52:34.941Z,9.73
2017-08-25T07:55:02.411Z,8.50
2017-08-25T07:57:29.879Z,10.83
2017-08-25T07:59:57.378Z,7.60
2017-08-25T08:02:24.833Z,8.77
2017-08-25T08:04:52.320Z,6.53
2017-08-25T08:07:19.870Z,8.00
2017-08-25T08:09:47.383Z,5.60
2017-08-25T08:12:14.910Z,6.97
2017-08-25T08:14:42.378Z,5.87
2017-08-25T08:17:09.918Z,9.80
2017-08-25T08:19:37.430Z,5.00
2017-08-25T08:22:04.898Z,5.90
2017-08-25T08:24:32.391Z,5.37
2017-08-25T08:26:59.848Z,4.03
2017-08-25T08:29:27.313Z,8.73
2017-08-25T08:31:54.809Z,12.80
2017-08-25T08:34:22.356Z,9.53
2017-08-25T08:36:49.824Z,9.03
2017-08-25T08:39:17.327Z,10.40
2017-08-25T08:41:44.798Z,10.73
2017-08-25T08:44:12.271Z,10.53
2017-08-25T08:46:39.739Z,14.13
2017-08-25T08:49:07.255Z,14.23
2017-08-25T08:51:34.731Z,16.57
2017-08-25T08:54:02.210Z,13.80
2017-08-25T08:56:29.718Z,16.43
2017-08-25T08:58:57.331Z,15.70
2017-08-25T09:01:24.809Z,19.07
2017-08-25T09:03:52.294Z,14.07
2017-08-25T09:06:35.411Z,13.60
2017-08-25T09:09:02.977Z,16.43
2017-08-25T09:11:30.535Z,13.47
2017-08-25T09:13:58.005Z,12.10
2017-08-25T09:16:25.476Z,13.60
2017-08-25T09:18:52.948Z,11.30
2017-08-25T09:21:20.459Z,13.47
2017-08-25T09:23:48.016Z,15.60
2017-08-25T09:26:15.571Z,13.30
2017-08-25T09:28:43.038Z,11.77
2017-08-25T09:31:10.598Z,13.40
2017-08-25T09:33:38.149Z,14.50
2017-08-25T09:36:05.615Z,17.23
2017-08-25T09:38:33.173Z,14.87
2017-08-25T09:41:00.641Z,12.93
2017-08-25T09:43:28.124Z,10.77
2017-08-25T09:45:55.655Z,13.13
2017-08-25T09:48:23.204Z,10.67
2017-08-25T09:50:50.753Z,14.33
2017-08-25T09:53:18.316Z,14.50
2017-08-25T09:55:45.785Z,12.60
2017-08-25T09:58:13.332Z,19.10
2017-08-25T10:00:40.901Z,16.33
2017-08-25T10:03:08.365Z,15.00
2017-08-25T10:05:35.844Z,14.83
2017-08-25T10:08:03.315Z,21.00
2017-08-25T10:10:30.791Z,16.73
2017-08-25T10:12:58.254Z,10.87
2017-08-25T10:15:25.730Z,14.17
2017-08-25T10:17:53.206Z,13.70
2017-08-25T10:20:20.741Z,13.53
2017-08-25T10:22:48.323Z,11.73
2017-08-25T10:25:15.876Z,22.53
2017-08-25T10:27:43.334Z,13.90
2017-08-25T10:30:10.883Z,13.93
2017-08-25T10:32:38.343Z,16.30
2017-08-25T10:35:17.669Z,18.40
2017-08-25T10:37:57.255Z,12.53
2017-08-25T10:40:36.751Z,11.23
2017-08-25T10:43:16.093Z,12.73
2017-08-25T10:45:43.638Z,9.70
2017-08-25T10:48:11.254Z,7.90
2017-08-25T10:50:38.753Z,18.70
2017-08-25T10:53:06.223Z,10.30
2017-08-25T10:55:33.778Z,11.67
2017-08-25T10:58:01.330Z,6.43
2017-08-25T11:00:28.800Z,8.53
2017-08-25T11:02:56.274Z,6.03
2017-08-25T11:05:23.733Z,12.07
2017-08-25T11:07:51.283Z,7.10
2017-08-25T11:10:18.823Z,7.50
2017-08-25T11:12:46.375Z,10.37
2017-08-25T11:15:13.838Z,7.00
2017-08-25T11:17:41.306Z,13.13
2017-08-25T11:20:08.847Z,13.80
2017-08-25T11:22:36.373Z,6.20
2017-08-25T11:25:03.839Z,9.20
2017-08-25T11:27:31.304Z,6.30
2017-08-25T11:29:58.790Z,6.10
2017-08-25T11:32:26.268Z,11.03
2017-08-25T11:34:53.727Z,6.10
2017-08-25T11:37:21.185Z,4.67
2017-08-25T11:39:48.698Z,9.63
2017-08-25T11:42:16.197Z,9.27
2017-08-25T11:44:43.681Z,9.10
2017-08-25T11:47:11.147Z,7.60
2017-08-25T11:49:38.693Z,9.10
2017-08-25T11:52:06.211Z,5.80
2017-08-25T11:54:33.759Z,9.60
2017-08-25T11:57:01.231Z,3.57
2017-08-25T11:59:28.735Z,4.00
2017-08-25T12:01:56.244Z,4.03
2017-08-25T12:04:23.706Z,4.40
2017-08-25T12:06:51.171Z,5.40
2017-08-25T12:09:18.638Z,7.70
2017-08-25T12:11:46.112Z,5.53
2017-08-25T12:14:13.600Z,4.47
2017-08-25T12:16:41.069Z,5.17
2017-08-25T12:19:08.525Z,5.33
2017-08-25T12:21:35.976Z,5.70
2017-08-25T12:24:03.525Z,4.30
2017-08-25T12:26:31.015Z,5.73
2017-08-25T12:28:58.550Z,10.07
2017-08-25T12:31:26.106Z,6.17
2017-08-25T12:33:53.675Z,11.77
2017-08-25T12:36:21.154Z,3.30
2017-08-25T12:38:48.678Z,4.30
2017-08-25T12:41:16.154Z,3.33
2017-08-25T12:43:43.693Z,3.27
2017-08-25T12:46:11.170Z,3.73
2017-08-25T12:48:38.622Z,3.80
2017-08-25T12:51:06.094Z,2.97
2017-08-25T12:53:33.565Z,6.90
2017-08-25T12:56:01.097Z,5.17
2017-08-25T12:58:28.579Z,4.07
2017-08-25T13:00:56.093Z,2.67
2017-08-25T13:03:23.645Z,2.90
2017-08-25T13:05:51.105Z,4.10
2017-08-25T13:08:18.671Z,4.90
2017-08-25T13:10:46.249Z,8.87
2017-08-25T13:13:13.786Z,6.57
2017-08-25T13:15:41.339Z,3.67
2017-08-25T13:18:08.802Z,12.93
2017-08-25T13:20:36.261Z,2.50
2017-08-25T13:23:03.835Z,5.43
2017-08-25T13:25:31.375Z,4.40
2017-08-25T13:27:58.847Z,5.53
2017-08-25T13:30:26.319Z,2.73
2017-08-25T13:32:53.858Z,5.07
2017-08-25T13:35:21.333Z,3.80
2017-08-25T13:37:48.868Z,1.93
2017-08-25T13:40:16.453Z,2.40
2017-08-25T13:42:43.930Z,4.70
2017-08-25T13:45:11.400Z,2.20
2017-08-25T13:47:38.858Z,3.80
2017-08-25T13:50:06.337Z,5.77
2017-08-25T13:52:33.794Z,2.77
2017-08-25T13:55:01.371Z,5.43
2017-08-25T13:57:28.825Z,4.40
2017-08-25T13:59:56.276Z,3.13
2017-08-25T14:02:23.831Z,2.37
2017-08-25T14:04:51.400Z,3.40
2017-08-25T14:07:18.960Z,4.17
2017-08-25T14:09:46.516Z,3.50
2017-08-25T14:12:13.982Z,3.00
2017-08-25T14:14:41.458Z,2.40
2017-08-25T14:17:08.991Z,3.27
2017-08-25T14:19:36.463Z,4.30
2017-08-25T14:22:03.937Z,5.87
2017-08-25T14:24:31.448Z,3.43
2017-08-25T14:26:59.019Z,6.00
2017-08-25T14:29:26.480Z,2.27
2017-08-25T14:31:54.033Z,2.60
2017-08-25T14:34:21.595Z,3.10
2017-08-25T14:36:49.061Z,2.73
2017-08-25T14:39:16.597Z,3.33
2017-08-25T14:41:44.086Z,2.00
2017-08-25T14:44:11.568Z,2.70
2017-08-25T14:46:39.070Z,1.70
2017-08-25T14:49:06.636Z,2.17
2017-08-25T14:51:34.089Z,2.27
2017-08-25T14:54:01.545Z,3.30
2017-08-25T14:56:29.012Z,1.87
2017-08-25T14:58:56.558Z,1.90
2017-08-25T15:01:24.119Z,2.17
2017-08-25T15:03:51.678Z,2.57
2017-08-25T15:06:19.132Z,7.67
2017-08-25T15:08:46.601Z,4.77
2017-08-25T15:11:14.160Z,2.30
2017-08-25T15:13:41.659Z,2.20
2017-08-25T15:16:09.162Z,3.33
2017-08-25T15:18:36.729Z,5.03
2017-08-25T15:21:04.195Z,2.87
2017-08-25T15:23:31.835Z,2.67
2017-08-25T15:25:59.397Z,6.00
2017-08-25T15:28:26.878Z,4.20
2017-08-25T15:30:54.421Z,4.47
2017-08-25T15:33:21.902Z,2.50
2017-08-25T15:35:49.438Z,2.10
2017-08-25T15:38:16.899Z,2.17
2017-08-25T15:40:44.391Z,1.83
2017-08-25T15:43:11.851Z,2.30
2017-08-25T15:45:39.354Z,2.90
2017-08-25T15:48:06.918Z,1.90
2017-08-25T15:50:34.473Z,2.63
2017-08-25T15:53:01.985Z,5.83
2017-08-25T15:55:29.467Z,2.13
2017-08-25T15:57:56.953Z,1.70
2017-08-25T16:00:24.427Z,4.50
2017-08-25T16:02:52.057Z,1.90
2017-08-25T16:05:19.512Z,2.17
2017-08-25T16:07:47.002Z,3.17
2017-08-25T16:10:14.468Z,7.50
2017-08-25T16:12:41.929Z,2.20
2017-08-25T16:15:09.394Z,2.03
2017-08-25T16:17:36.868Z,1.80
2017-08-25T16:20:04.346Z,2.80
2017-08-25T16:22:31.823Z,6.27
2017-08-25T16:24:59.278Z,2.43
2017-08-25T16:27:27.564Z,7.97
2017-08-25T16:29:55.029Z,3.80
2017-08-25T16:32:22.563Z,4.63
2017-08-25T16:34:50.128Z,3.03
2017-08-25T16:37:17.648Z,2.50
2017-08-25T16:39:45.147Z,5.73
2017-08-25T16:42:12.618Z,3.73
2017-08-25T16:44:40.149Z,4.97
2017-08-25T16:47:07.622Z,2.37
2017-08-25T16:49:35.094Z,1.93
2017-08-25T16:52:02.576Z,2.93
2017-08-25T16:54:30.106Z,2.77
2017-08-25T16:56:57.641Z,4.13
2017-08-25T16:59:25.129Z,6.23
2017-08-25T17:01:52.605Z,2.00
2017-08-25T17:04:20.067Z,2.50
2017-08-25T17:06:47.542Z,3.13
2017-08-25T17:09:15.095Z,2.93
2017-08-25T17:11:42.581Z,4.60
2017-08-25T17:14:10.052Z,1.97
2017-08-25T17:16:37.534Z,2.33
2017-08-25T17:19:04.991Z,14.53
2017-08-25T17:21:32.567Z,3.03
2017-08-25T17:24:00.083Z,3.73
2017-08-25T17:26:27.644Z,7.53
2017-08-25T17:28:55.107Z,4.50
2017-08-25T17:31:22.586Z,2.40
2017-08-25T17:33:50.090Z,4.87
2017-08-25T17:36:17.659Z,3.13
2017-08-25T17:38:45.219Z,2.23
2017-08-25T17:41:12.688Z,9.80
2017-08-25T17:43:40.185Z,4.97
2017-08-25T17:46:07.966Z,6.00
2017-08-25T17:48:35.462Z,2.67
2017-08-25T17:51:02.953Z,3.80
2017-08-25T17:53:30.461Z,4.03
2017-08-25T17:55:57.933Z,3.40
2017-08-25T17:58:25.486Z,4.43
2017-08-25T18:00:52.969Z,3.33
2017-08-25T18:03:20.442Z,3.30
2017-08-25T18:05:47.961Z,4.20
2017-08-25T18:08:15.512Z,3.90
2017-08-25T18:10:43.084Z,4.77
2017-08-25T18:13:10.626Z,5.00
2017-08-25T18:15:38.112Z,5.97
2017-08-25T18:18:05.573Z,4.77
2017-08-25T18:20:33.120Z,7.57
2017-08-25T18:23:00.595Z,11.33
2017-08-25T18:25:28.056Z,8.50
2017-08-25T18:27:55.652Z,11.83
2017-08-25T18:30:23.117Z,9.00
2017-08-25T18:32:50.602Z,6.40
2017-08-25T18:35:18.078Z,3.70
2017-08-25T18:37:45.599Z,8.53
2017-08-25T18:40:13.073Z,10.77
2017-08-25T18:42:40.545Z,6.10
2017-08-25T18:45:08.012Z,4.93
2017-08-25T18:47:35.554Z,9.70
2017-08-25T18:50:03.110Z,9.87
2017-08-25T18:52:30.654Z,7.83
2017-08-25T18:54:58.131Z,5.90
2017-08-25T18:57:25.607Z,4.90
2017-08-25T18:59:53.067Z,6.97
2017-08-25T19:02:20.541Z,8.17
2017-08-25T19:04:48.023Z,6.00
2017-08-25T19:07:15.613Z,5.03
2017-08-25T19:09:43.175Z,6.90
2017-08-25T19:12:10.633Z,9.27
2017-08-25T19:14:38.170Z,9.77
2017-08-25T19:17:05.721Z,12.83
2017-08-25T19:19:33.177Z,11.03
2017-08-25T19:22:00.736Z,6.57
2017-08-25T19:24:28.293Z,12.07
2017-08-25T19:26:55.865Z,10.50
2017-08-25T19:29:23.326Z,9.33
2017-08-25T19:31:50.824Z,8.70
2017-08-25T19:34:18.278Z,10.63
2017-08-25T19:36:45.748Z,6.67
2017-08-25T19:39:13.251Z,6.80
2017-08-25T19:41:40.729Z,8.63
2017-08-25T19:44:08.257Z,12.83
2017-08-25T19:46:35.820Z,8.00
2017-08-25T19:49:03.290Z,9.30
2017-08-25T19:51:30.845Z,8.70
2017-08-25T19:53:58.306Z,8.87
2017-08-25T19:56:25.800Z,7.53
2017-08-25T19:58:53.308Z,7.07
2017-08-25T20:01:20.874Z,7.90
2017-08-25T20:03:48.429Z,9.50
2017-08-25T20:06:15.891Z,9.90
2017-08-25T20:08:43.367Z,10.00
2017-08-25T20:11:10.907Z,9.57
2017-08-25T20:13:38.387Z,10.00
2017-08-25T20:16:05.851Z,8.53
2017-08-25T20:18:33.344Z,12.37
2017-08-25T20:21:00.807Z,8.27
2017-08-25T20:23:28.286Z,7.30
2017-08-25T20:25:55.842Z,8.17
2017-08-25T20:28:23.399Z,8.23
2017-08-25T20:30:50.876Z,10.40
2017-08-25T20:33:18.341Z,12.07
2017-08-25T20:35:45.861Z,8.33
2017-08-25T20:38:13.333Z,6.53
2017-08-25T20:40:40.886Z,10.73
2017-08-25T20:43:08.510Z,10.07
2017-08-25T20:45:35.977Z,10.20
2017-08-25T20:48:03.465Z,10.33
2017-08-25T20:50:31.007Z,13.13
2017-08-25T20:52:58.580Z,9.00
2017-08-25T20:55:26.182Z,12.13
2017-08-25T20:57:53.623Z,8.77
2017-08-25T21:00:21.102Z,8.03
2017-08-25T21:02:48.581Z,9.07
2017-08-25T21:05:16.053Z,10.20
2017-08-25T21:07:43.600Z,11.93
2017-08-25T21:10:11.056Z,9.50
2017-08-25T21:12:38.527Z,7.63
2017-08-25T21:15:05.995Z,12.37
2017-08-25T21:17:33.464Z,7.47
2017-08-25T21:20:00.930Z,11.63
2017-08-25T21:22:28.412Z,10.40
2017-08-25T21:24:55.888Z,10.77
2017-08-25T21:27:23.380Z,13.60
2017-08-25T21:29:50.837Z,15.53
2017-08-25T21:32:18.399Z,9.67
2017-08-25T21:34:45.950Z,9.80
2017-08-25T21:37:13.505Z,10.23
2017-08-25T21:39:41.071Z,9.03
2017-08-25T21:42:08.617Z,9.37
2017-08-25T21:44:36.178Z,10.40
2017-08-25T21:47:03.738Z,11.70
2017-08-25T21:49:31.205Z,8.50
2017-08-25T21:51:58.758Z,10.43
2017-08-25T21:54:26.305Z,11.50
2017-08-25T21:56:53.775Z,10.80
2017-08-25T21:59:21.329Z,11.53
2017-08-25T22:01:48.939Z,10.50
2017-08-25T22:04:16.398Z,11.50
2017-08-25T22:06:43.871Z,14.07
2017-08-25T22:09:11.366Z,12.27
2017-08-25T22:11:38.915Z,11.63
2017-08-25T22:14:06.380Z,11.87
2017-08-25T22:16:33.943Z,10.90
2017-08-25T22:19:01.497Z,8.07
2017-08-25T22:21:29.045Z,8.87
2017-08-25T22:23:56.506Z,9.93
2017-08-25T22:26:23.978Z,8.67
2017-08-25T22:28:51.548Z,11.70
2017-08-25T22:31:18.992Z,7.87
2017-08-25T22:33:46.533Z,10.93
2017-08-25T22:36:14.088Z,9.33
2017-08-25T22:38:41.659Z,10.93
2017-08-25T22:41:09.218Z,9.50
2017-08-25T22:43:36.675Z,8.87
2017-08-25T22:46:04.424Z,9.13
2017-08-25T22:48:31.977Z,15.20
2017-08-25T22:50:59.488Z,14.50
2017-08-25T22:53:26.958Z,8.57
2017-08-25T22:55:54.417Z,11.97
2017-08-25T22:58:22.840Z,9.37
2017-08-25T23:00:50.424Z,9.17
2017-08-25T23:03:17.958Z,7.83
2017-08-25T23:05:45.520Z,10.53
2017-08-25T23:08:13.000Z,10.67
2017-08-25T23:10:40.494Z,7.07
2017-08-25T23:13:08.007Z,10.00
2017-08-25T23:15:35.464Z,8.83
2017-08-25T23:18:02.936Z,11.33
2017-08-25T23:20:30.409Z,9.60
2017-08-25T23:22:57.913Z,9.70
2017-08-25T23:25:25.432Z,12.37
2017-08-25T23:27:52.925Z,9.83
2017-08-25T23:30:20.519Z,7.30
2017-08-25T23:32:48.001Z,11.57
2017-08-25T23:35:15.466Z,11.83
2017-08-25T23:37:43.063Z,10.43
2017-08-25T23:40:10.615Z,10.80
2017-08-25T23:42:38.178Z,12.53
2017-08-25T23:45:05.746Z,10.73
2017-08-25T23:47:33.294Z,6.73
2017-08-25T23:50:00.769Z,7.90
2017-08-25T23:52:28.304Z,9.53
2017-08-25T23:54:55.768Z,9.83
2017-08-25T23:57:23.381Z,13.30
2017-08-25T23:59:50.852Z,18.00
